Time;durP1;ratioP1;P1;durP2;ratioP2;P2;SDS_P1;SDS_P2;PMS_P1;PMS_P2;Temp;Humidity;BMP_temperature;BMP_pressure;BME280_temperature;BME280_humidity;BME280_pressure;Samples;Min_cycle;Max_cycle;Signal;HPM_P1;HPM_P2
2021/12/16 02:02:38;;;;;;;19.80;12.55;;;;;;;4.67;100.00;101460.44;6144272;23;19927;-83
2021/12/16 02:08:07;;;;;;;21.65;13.77;;;;;;;4.70;100.00;101465.19;6152761;23;20447;-83
2021/12/16 02:10:36;;;;;;;20.42;13.27;;;;;;;4.62;100.00;101441.47;6150734;23;20076;-83
2021/12/16 02:29:42;;;;;;;21.05;13.68;;;;;;;4.76;100.00;101431.94;6150879;23;20021;-83
2021/12/16 02:32:26;;;;;;;21.10;14.52;;;;;;;4.72;100.00;101428.31;6150795;23;20073;-83
2021/12/16 02:37:22;;;;;;;34.17;21.73;;;;;;;4.76;100.00;101431.94;6152452;23;20408;-83
2021/12/16 02:39:51;;;;;;;24.17;16.42;;;;;;;4.70;100.00;101421.22;6150828;23;20022;-83
2021/12/16 02:42:21;;;;;;;22.98;15.15;;;;;;;4.76;100.00;101426.44;6150758;23;20463;-83
2021/12/16 02:50:19;;;;;;;21.60;14.80;;;;;;;4.73;100.00;101418.94;6150980;23;20448;-83
2021/12/16 02:52:45;;;;;;;21.35;14.30;;;;;;;4.78;100.00;101418.59;6150503;23;20103;-83
2021/12/16 02:55:12;;;;;;;20.05;14.52;;;;;;;4.76;100.00;101418.19;6151394;23;20430;-83
2021/12/16 02:57:47;;;;;;;23.77;16.42;;;;;;;4.75;100.00;101419.34;6151205;23;20029;-82
2021/12/16 03:00:16;;;;;;;20.90;15.10;;;;;;;4.69;100.00;101408.63;6152614;23;20017;-83
2021/12/16 03:02:47;;;;;;;20.65;14.70;;;;;;;4.73;100.00;101414.22;6150745;23;20017;-83
2021/12/16 03:05:13;;;;;;;20.45;14.65;;;;;;;4.76;100.00;101418.19;6151236;23;20013;-83
2021/12/16 03:07:40;;;;;;;20.17;14.25;;;;;;;4.75;100.00;101420.13;6150691;23;20018;-83
2021/12/16 03:13:09;;;;;;;20.63;14.27;;;;;;;4.66;100.00;101414.06;6150652;23;20053;-83
2021/12/16 03:21:01;;;;;;;21.08;14.40;;;;;;;4.69;100.00;101407.88;6151354;23;20105;-82
2021/12/16 03:38:57;;;;;;;20.17;13.98;;;;;;;4.76;100.00;101415.44;6154202;23;20585;-82
2021/12/16 03:41:24;;;;;;;18.52;13.90;;;;;;;4.76;100.00;101412.69;6152755;23;20355;-82
2021/12/16 03:43:51;;;;;;;19.27;13.00;;;;;;;4.77;100.00;101414.28;6154519;23;20002;-82
2021/12/16 03:46:28;;;;;;;18.13;13.65;;;;;;;4.71;100.00;101394.53;6128221;23;20021;-82
2021/12/16 03:49:11;;;;;;;19.15;13.80;;;;;;;4.74;100.00;101409.50;6154179;23;20024;-82
2021/12/16 03:51:43;;;;;;;18.05;13.55;;;;;;;4.75;100.00;101411.09;6154524;23;20018;-82
2021/12/16 03:54:11;;;;;;;;;;;;;;;4.74;100.00;101406.75;6128615;23;20017;-82
2021/12/16 03:56:40;;;;;;;25.35;17.52;;;;;;;4.76;100.00;101401.69;6152730;23;19921;-83
2021/12/16 03:59:14;;;;;;;22.38;16.13;;;;;;;4.80;100.00;101408.06;6152265;23;20016;-83
2021/12/16 04:01:52;;;;;;;22.92;16.27;;;;;;;4.83;100.00;101407.31;6152600;23;20460;-83
2021/12/16 04:04:24;;;;;;;;;;;;;;;4.84;100.00;101414.41;6157277;23;20060;-83
2021/12/16 04:06:50;;;;;;;19.20;13.73;;;;;;;4.80;100.00;101402.56;6157514;23;19959;-83
2021/12/16 04:09:16;;;;;;;18.15;12.82;;;;;;;4.81;100.00;101420.66;6132883;23;20534;-83
2021/12/16 04:12:07;;;;;;;18.35;13.02;;;;;;;4.82;100.00;101420.25;6157745;23;20036;-83
2021/12/16 04:14:33;;;;;;;16.63;12.85;;;;;;;4.82;100.00;101419.47;6157206;23;20021;-83
2021/12/16 04:17:03;;;;;;;18.85;13.35;;;;;;;4.80;100.00;101413.56;6183993;23;20413;-81
2021/12/16 04:19:38;;;;;;;16.83;12.35;;;;;;;4.83;100.00;101412.81;6135389;23;20009;-82
2021/12/16 04:22:09;;;;;;;17.75;13.15;;;;;;;4.84;100.00;101422.66;6182157;23;20447;-82
2021/12/16 04:24:37;;;;;;;18.02;13.07;;;;;;;4.75;100.00;101411.09;6133235;23;20059;-82
2021/12/16 04:27:05;;;;;;;18.08;13.10;;;;;;;4.81;100.00;101415.16;6157054;23;20013;-82
2021/12/16 04:29:32;;;;;;;18.33;13.23;;;;;;;4.79;100.00;101407.25;6183242;23;20009;-82
2021/12/16 04:31:59;;;;;;;18.63;13.40;;;;;;;4.79;100.00;101404.50;6133134;23;20017;-82
2021/12/16 04:34:25;;;;;;;16.70;12.70;;;;;;;4.76;100.00;101407.19;6131910;23;20353;-82
2021/12/16 04:36:51;;;;;;;17.42;12.55;;;;;;;4.80;100.00;101408.06;6127517;23;20013;-82
2021/12/16 04:39:20;;;;;;;18.40;13.05;;;;;;;4.87;100.00;101421.94;6150627;23;20471;-82
2021/12/16 04:41:46;;;;;;;16.95;13.07;;;;;;;4.85;100.00;101407.75;6157207;23;20079;-82
2021/12/16 04:44:14;;;;;;;17.52;12.73;;;;;;;4.85;100.00;101411.31;6156013;23;20013;-82
2021/12/16 04:46:41;;;;;;;17.48;12.82;;;;;;;4.87;100.00;101411.72;6132733;23;20032;-82
2021/12/16 04:49:08;;;;;;;17.88;13.18;;;;;;;4.84;100.00;101417.16;6156825;23;20034;-82
2021/12/16 04:51:40;;;;;;;15.63;12.02;;;;;;;4.82;100.00;101402.97;6180954;23;20009;-82
2021/12/16 04:54:08;;;;;;;17.95;13.27;;;;;;;4.90;100.00;101410.19;6156195;23;20017;-82
2021/12/16 04:56:35;;;;;;;20.60;15.10;;;;;;;4.84;100.00;101414.41;6157319;23;20028;-82
2021/12/16 04:59:08;;;;;;;19.20;13.55;;;;;;;4.79;100.00;101406.47;6133251;23;20021;-82
2021/12/16 05:01:35;;;;;;;18.50;13.90;;;;;;;4.77;100.00;101400.53;6156136;23;20482;-82
2021/12/16 05:04:04;;;;;;;18.08;13.15;;;;;;;4.81;100.00;101407.69;6151592;23;20219;-82
2021/12/16 05:06:29;;;;;;;18.58;13.15;;;;;;;4.72;100.00;101403.59;6151955;23;20017;-82
2021/12/16 05:08:55;;;;;;;16.85;12.98;;;;;;;4.76;100.00;101407.19;6152275;23;20520;-82
2021/12/16 05:11:44;;;;;;;17.55;13.38;;;;;;;4.73;100.00;101413.44;6152383;23;20026;-82
2021/12/16 05:14:09;;;;;;;16.98;12.60;;;;;;;4.72;100.00;101420.06;6151789;23;20116;-83
2021/12/16 05:16:41;;;;;;;17.38;13.15;;;;;;;4.73;100.00;101407.94;6151785;23;20036;-83
2021/12/16 05:19:06;;;;;;;17.70;13.07;;;;;;;4.68;100.00;101404.31;6151595;23;20022;-83
2021/12/16 05:24:13;;;;;;;16.58;12.30;;;;;;;4.73;100.00;101410.69;6127496;23;20028;-83
2021/12/16 05:24:39;;;;;;;16.05;12.23;;;;;;;4.75;100.00;101416.59;6150889;23;20044;-83
2021/12/16 05:27:13;;;;;;;17.25;13.05;;;;;;;4.75;100.00;101422.09;6151562;23;20001;-83
2021/12/16 05:29:41;;;;;;;17.05;12.98;;;;;;;4.78;100.00;101418.59;6151347;23;20025;-83
2021/12/16 05:32:09;;;;;;;18.30;13.23;;;;;;;4.70;100.00;101414.94;6151590;23;20017;-82
2021/12/16 05:34:35;;;;;;;19.17;13.63;;;;;;;4.73;100.00;101416.19;6151548;23;20065;-82
2021/12/16 05:37:04;;;;;;;16.85;13.25;;;;;;;4.73;100.00;101436.22;6156712;23;20017;-82
2021/12/16 05:39:30;;;;;;;17.73;14.32;;;;;;;4.73;100.00;101424.41;6156469;23;20351;-82
2021/12/16 05:42:15;;;;;;;20.10;14.90;;;;;;;4.73;100.00;101435.41;6155960;23;20075;-82
2021/12/16 05:44:42;;;;;;;17.73;13.73;;;;;;;4.71;100.00;101433.03;6156503;23;20021;-82
2021/12/16 05:47:08;;;;;;;17.83;14.18;;;;;;;4.74;100.00;101435.03;6156720;23;20020;-82
2021/12/16 05:49:34;;;;;;;14.55;11.80;;;;;;;4.73;100.00;101429.91;6156629;23;20066;-82
2021/12/16 05:52:00;;;;;;;16.48;12.45;;;;;;;4.64;100.00;101433.69;6156728;23;20021;-83
2021/12/16 05:54:26;;;;;;;16.10;12.43;;;;;;;4.67;100.00;101435.69;6131759;23;20017;-83
2021/12/16 05:57:10;;;;;;;;;;;;;;;4.75;100.00;101438.59;6156807;23;20028;-82
2021/12/16 05:59:38;;;;;;;15.05;11.95;;;;;;;4.74;100.00;101436.97;6132665;23;19912;-83
2021/12/16 06:02:04;;;;;;;15.75;11.23;;;;;;;4.72;100.00;101431.06;6154625;23;20020;-83
2021/12/16 06:04:34;;;;;;;14.27;12.07;;;;;;;4.78;100.00;101440.59;6153652;23;20017;-83
2021/12/16 06:07:09;;;;;;;15.00;11.25;;;;;;;4.76;100.00;101440.19;6154926;23;20021;-83
2021/12/16 06:09:34;;;;;;;14.43;10.70;;;;;;;4.70;100.00;101431.41;6129815;23;20029;-83
2021/12/16 06:12:01;;;;;;;15.68;11.40;;;;;;;4.70;100.00;101436.91;6181617;23;20009;-82
2021/12/16 06:14:44;;;;;;;48.85;28.15;;;;;;;4.70;100.00;101440.47;6178814;23;20027;-82
2021/12/16 06:28:20;;;;;;;14.82;10.82;;;;;;;4.63;100.00;101451.31;6182595;23;20064;-86
2021/12/16 06:30:46;;;;;;;16.15;12.02;;;;;;;4.62;100.00;101452.47;6182113;23;20013;-87
2021/12/16 06:33:14;;;;;;;18.05;12.27;;;;;;;4.61;100.00;101464.63;6181788;23;20051;-87
2021/12/16 06:35:40;;;;;;;18.98;13.32;;;;;;;4.60;100.00;101454.81;6156858;23;20036;-86
2021/12/16 06:38:08;;;;;;;21.33;14.82;;;;;;;4.62;100.00;101463.47;6157030;23;20092;-87
2021/12/16 06:40:45;;;;;;;19.20;13.52;;;;;;;4.61;100.00;101456.38;6156151;23;20016;-85
2021/12/16 06:43:48;;;;;;;18.30;13.57;;;;;;;4.59;100.00;101455.16;6121305;23;20096;-86
2021/12/16 06:46:18;;;;;;;17.98;12.02;;;;;;;4.59;100.00;101472.44;6151184;23;20028;-85
2021/12/16 06:48:47;;;;;;;16.27;12.23;;;;;;;4.55;100.00;101455.09;6182969;23;20025;-86
2021/12/16 06:51:21;;;;;;;15.70;12.05;;;;;;;4.58;100.00;101470.84;6182576;23;20080;-86
2021/12/16 06:54:03;;;;;;;16.98;12.90;;;;;;;4.59;100.00;101474.41;6158057;23;20009;-86
2021/12/16 06:56:36;;;;;;;16.25;13.25;;;;;;;4.55;100.00;101455.09;6182466;23;20035;-85
2021/12/16 06:59:10;;;;;;;17.20;13.13;;;;;;;4.62;100.00;101470.91;6158419;23;20075;-86
2021/12/16 07:04:03;;;;;;;20.20;17.95;;;;;;;4.62;100.00;101485.47;6182394;23;20503;-87
2021/12/16 07:06:30;;;;;;;19.15;16.75;;;;;;;4.67;100.00;101482.44;6182277;23;20013;-86
2021/12/16 07:09:05;;;;;;;25.63;22.42;;;;;;;4.68;100.00;101462.03;6183726;23;20013;-85
2021/12/16 07:11:36;;;;;;;36.60;32.70;;;;;;;4.70;100.00;101481.69;6158566;23;20423;-85
2021/12/16 07:14:04;;;;;;;24.83;21.48;;;;;;;4.72;100.00;101475.03;6184650;23;20009;-85
2021/12/16 07:16:30;;;;;;;14.70;12.07;;;;;;;4.62;100.00;101462.66;6184479;23;20008;-84
2021/12/16 07:18:57;;;;;;;14.90;12.65;;;;;;;4.72;100.00;101472.28;6184736;23;20017;-85
2021/12/16 07:21:23;;;;;;;14.23;10.98;;;;;;;4.73;100.00;101473.91;6158260;23;20005;-85
2021/12/16 07:23:49;;;;;;;19.73;15.23;;;;;;;4.72;100.00;101486.84;6184681;23;20020;-85
2021/12/16 07:26:15;;;;;;;17.65;13.48;;;;;;;4.74;100.00;101473.50;6158266;23;20021;-84
2021/12/16 07:28:41;;;;;;;13.98;10.43;;;;;;;4.75;100.00;101475.13;6185125;23;20341;-85
2021/12/16 07:31:06;;;;;;;13.40;10.38;;;;;;;4.77;100.00;101477.50;6184454;23;20020;-86
2021/12/16 07:33:32;;;;;;;37.17;33.25;;;;;;;4.77;100.00;101477.50;6184183;23;20009;-85
2021/12/16 07:36:00;;;;;;;83.43;50.70;;;;;;;4.73;100.00;101468.41;6184390;23;20013;-85
2021/12/16 07:38:26;;;;;;;265.98;145.60;;;;;;;4.79;100.00;101469.69;6158475;23;20409;-86
2021/12/16 07:40:52;;;;;;;213.05;125.80;;;;;;;4.79;100.00;101484.22;6184176;23;20016;-86
2021/12/16 07:43:29;;;;;;;77.70;51.08;;;;;;;4.80;100.00;101476.78;6184079;23;20013;-85
2021/12/16 07:45:56;;;;;;;77.22;55.22;;;;;;;4.74;100.00;101478.22;6184748;23;20044;-86
2021/12/16 07:48:24;;;;;;;27.77;21.60;;;;;;;4.78;100.00;101476.34;6184050;23;20445;-86
2021/12/16 07:50:52;;;;;;;24.85;19.65;;;;;;;4.80;100.00;101485.03;6158073;23;20502;-86
2021/12/16 07:53:18;;;;;;;17.25;12.15;;;;;;;4.83;100.00;101492.53;6157834;23;20080;-86
2021/12/16 07:55:46;;;;;;;13.70;10.45;;;;;;;4.83;100.00;101484.28;6158210;23;20057;-86
2021/12/16 07:58:11;;;;;;;16.88;10.60;;;;;;;4.85;100.00;101482.00;6158331;23;20009;-86
2021/12/16 08:00:37;;;;;;;25.88;20.05;;;;;;;4.85;100.00;101482.00;6184358;23;20009;-85
2021/12/16 08:03:07;;;;;;;40.90;28.23;;;;;;;4.89;100.00;101483.66;6183891;23;20024;-86
2021/12/16 08:05:37;;;;;;;108.63;67.38;;;;;;;4.87;100.00;101485.16;6184342;23;20439;-86
2021/12/16 08:08:03;;;;;;;246.05;143.52;;;;;;;4.90;100.00;101489.91;6157994;23;20431;-85
2021/12/16 08:10:29;;;;;;;34.40;23.77;;;;;;;4.95;100.00;101492.38;6183516;23;20076;-85
2021/12/16 08:12:55;;;;;;;12.95;9.43;;;;;;;4.97;100.00;101496.38;6184167;23;20020;-85
2021/12/16 08:15:21;;;;;;;15.00;10.32;;;;;;;4.93;100.00;101486.47;6183592;23;20013;-86
2021/12/16 08:17:47;;;;;;;13.70;9.15;;;;;;;4.96;100.00;101499.47;6183877;23;20020;-86
2021/12/16 08:20:18;;;;;;;11.85;8.73;;;;;;;4.99;100.00;101496.78;6183333;23;20017;-86
2021/12/16 08:22:48;;;;;;;12.63;8.95;;;;;;;5.05;100.00;101508.31;6184452;23;20013;-86
2021/12/16 08:25:16;;;;;;;11.60;8.73;;;;;;;5.06;100.00;101487.88;6184087;23;20027;-86
2021/12/16 08:27:41;;;;;;;13.70;8.55;;;;;;;5.10;100.00;101510.75;6184116;23;20088;-85
2021/12/16 08:30:10;;;;;;;14.00;9.93;;;;;;;5.09;100.00;101504.47;6184035;23;20055;-86
2021/12/16 08:32:37;;;;;;;12.02;8.93;;;;;;;5.08;99.54;101502.88;6183669;23;20497;-85
2021/12/16 08:35:03;;;;;;;11.35;8.48;;;;;;;5.15;100.00;101515.94;6157590;23;20060;-85
2021/12/16 08:37:29;;;;;;;13.70;8.77;;;;;;;5.22;99.55;101507.81;6183733;23;20017;-86
2021/12/16 08:39:54;;;;;;;13.18;9.07;;;;;;;5.21;99.44;101517.25;6183819;23;20475;-86
2021/12/16 08:42:20;;;;;;;12.63;8.65;;;;;;;5.26;99.95;101508.69;6157207;23;20375;-86
2021/12/16 08:44:46;;;;;;;12.77;9.20;;;;;;;5.30;99.21;101515.03;6183496;23;20013;-86
2021/12/16 08:47:14;;;;;;;12.23;9.10;;;;;;;5.34;98.77;101510.41;6157574;23;20029;-85
2021/12/16 08:49:41;;;;;;;12.52;8.65;;;;;;;5.39;98.10;101496.34;6183361;23;20013;-86
2021/12/16 08:52:14;;;;;;;16.50;12.00;;;;;;;5.46;98.85;101504.72;6183949;23;20017;-85
2021/12/16 08:54:40;;;;;;;;;;;;;;;5.50;98.51;101508.34;6184324;23;20019;-86
2021/12/16 08:57:06;;;;;;;15.00;9.93;;;;;;;5.50;98.91;101491.81;6157072;23;19943;-86
2021/12/16 08:59:32;;;;;;;10.18;7.68;;;;;;;5.62;96.89;101505.41;6183427;23;20016;-84
2021/12/16 09:01:58;;;;;;;9.20;7.05;;;;;;;5.64;95.42;101492.06;6183792;23;20023;-84
2021/12/16 09:04:25;;;;;;;9.93;6.10;;;;;;;5.76;94.18;101498.53;6183054;23;20072;-84
2021/12/16 09:06:52;;;;;;;8.85;5.55;;;;;;;5.82;95.12;101497.06;6183784;23;20020;-84
2021/12/16 09:09:18;;;;;;;13.88;5.38;;;;;;;5.84;93.91;101503.78;6183288;23;20450;-84
2021/12/16 09:12:02;;;;;;;11.40;5.18;;;;;;;5.89;93.01;101491.72;6157187;23;20017;-84
2021/12/16 09:14:28;;;;;;;;;;;;;;;5.97;92.21;101504.41;6183711;23;20080;-85
2021/12/16 09:16:53;;;;;;;6.00;3.80;;;;;;;5.98;90.48;101495.00;6157062;23;19962;-84
2021/12/16 09:19:19;;;;;;;20.80;5.63;;;;;;;6.01;90.50;101491.50;6156959;23;20013;-84
2021/12/16 09:21:44;;;;;;;8.18;4.22;;;;;;;6.06;90.66;101491.19;6183513;23;20017;-84
2021/12/16 09:24:14;;;;;;;5.65;3.30;;;;;;;6.18;89.43;101502.00;6183276;23;20095;-85
2021/12/16 09:26:41;;;;;;;6.63;3.53;;;;;;;6.21;90.40;101487.47;6157457;23;20005;-85
2021/12/16 09:29:07;;;;;;;12.85;4.28;;;;;;;6.27;90.18;101491.47;6157068;23;20013;-85
2021/12/16 09:31:32;;;;;;;4.82;3.35;;;;;;;6.32;87.85;101488.41;6183859;23;20415;-85
2021/12/16 09:34:04;;;;;;;4.50;3.10;;;;;;;6.24;87.50;101472.94;6183290;23;20020;-84
2021/12/16 09:36:34;;;;;;;7.10;4.00;;;;;;;6.34;87.38;101490.78;6183046;23;20039;-84
2021/12/16 09:39:00;;;;;;;4.97;3.22;;;;;;;6.30;87.07;101484.44;6182790;23;20084;-85
2021/12/16 09:41:28;;;;;;;4.45;3.08;;;;;;;6.33;87.49;101484.47;6157109;23;20051;-86
2021/12/16 09:43:55;;;;;;;4.97;3.28;;;;;;;6.34;88.16;101483.31;6182923;23;20023;-87
2021/12/16 09:46:23;;;;;;;5.30;3.10;;;;;;;6.32;86.91;101480.13;6182894;23;20013;-86
2021/12/16 09:48:50;;;;;;;5.28;3.15;;;;;;;6.34;86.96;101482.53;6156604;23;20013;-86
2021/12/16 09:51:22;;;;;;;3.65;2.50;;;;;;;6.39;86.93;101477.47;6183320;23;20013;-85
2021/12/16 09:54:00;;;;;;;4.47;2.78;;;;;;;6.42;87.34;101465.72;6108019;23;20370;-85
2021/12/16 09:56:27;;;;;;;4.65;2.60;;;;;;;6.49;86.33;101476.81;6183066;23;20009;-86
2021/12/16 09:58:53;;;;;;;6.85;2.30;;;;;;;6.58;86.94;101479.28;6182687;23;20001;-85
2021/12/16 10:01:21;;;;;;;4.90;2.60;;;;;;;6.67;86.77;101481.78;6183092;23;20086;-85
2021/12/16 10:03:49;;;;;;;4.10;2.40;;;;;;;6.75;87.13;101475.97;6182820;23;20013;-85
2021/12/16 10:06:15;;;;;;;3.35;2.22;;;;;;;6.90;86.13;101487.94;6183144;23;20462;-87
2021/12/16 10:08:42;;;;;;;3.53;2.00;;;;;;;7.01;86.33;101486.88;6182612;23;20232;-85
2021/12/16 10:11:08;;;;;;;4.25;2.63;;;;;;;7.11;84.65;101488.19;6157086;23;20016;-85
2021/12/16 10:13:45;;;;;;;4.38;2.10;;;;;;;7.11;82.92;101474.38;6182391;23;20395;-85
2021/12/16 10:18:38;;;;;;;3.08;2.03;;;;;;;7.30;84.35;101476.13;6156109;23;20016;-84
2021/12/16 10:21:06;;;;;;;3.90;2.33;;;;;;;7.24;81.27;101472.91;6182951;23;20071;-85
2021/12/16 10:23:36;;;;;;;2.85;1.95;;;;;;;7.29;82.74;101456.03;6156412;23;20032;-85
2021/12/16 10:26:06;;;;;;;3.17;1.80;;;;;;;7.29;83.57;101461.53;6156879;23;20013;-87
2021/12/16 10:28:40;;;;;;;2.90;1.83;;;;;;;7.27;81.84;101468.63;6182337;23;20083;-85
2021/12/16 10:31:13;;;;;;;2.38;1.65;;;;;;;7.26;82.96;101467.03;6156840;23;20363;-86
2021/12/16 10:33:52;;;;;;;3.67;1.80;;;;;;;7.23;81.96;101454.00;6182360;23;20017;-85
2021/12/16 10:36:33;;;;;;;6.50;2.08;;;;;;;7.18;81.45;101457.91;6183132;23;20009;-85
2021/12/16 10:39:22;;;;;;;3.40;1.95;;;;;;;7.11;82.54;101446.78;6156355;23;20040;-85
2021/12/16 10:41:54;;;;;;;2.90;1.90;;;;;;;7.15;82.92;101442.09;6156172;23;20025;-84
2021/12/16 10:44:25;;;;;;;4.05;2.28;;;;;;;7.11;83.03;101437.72;6182345;23;20095;-84
2021/12/16 10:46:59;;;;;;;3.20;2.00;;;;;;;7.15;83.30;101427.50;6182796;23;20009;-84
2021/12/16 10:49:42;;;;;;;3.65;1.90;;;;;;;7.16;81.60;101435.38;6182457;23;20013;-84
2021/12/16 10:52:14;;;;;;;3.13;1.98;;;;;;;7.22;83.25;101442.16;6182975;23;20020;-83
2021/12/16 10:54:42;;;;;;;2.70;1.85;;;;;;;7.22;83.16;101439.41;6155717;23;20063;-85
2021/12/16 10:57:16;;;;;;;3.47;2.10;;;;;;;7.26;83.37;101443.00;6182667;23;20017;-86
2021/12/16 10:59:49;;;;;;;4.88;2.30;;;;;;;7.30;82.58;101441.06;6182063;23;20013;-86
2021/12/16 11:02:18;;;;;;;2.88;2.17;;;;;;;7.35;82.54;101445.44;6156721;23;20347;-86
2021/12/16 11:04:47;;;;;;;2.40;1.80;;;;;;;7.28;82.07;101439.88;6181908;23;20434;-86
2021/12/16 11:07:28;;;;;;;3.13;2.13;;;;;;;7.28;82.13;101446.16;6132263;23;20013;-85
2021/12/16 11:09:57;;;;;;;3.63;2.00;;;;;;;7.25;82.26;101435.88;6182855;23;20024;-85
2021/12/16 11:12:40;;;;;;;4.63;2.47;;;;;;;7.24;82.89;101434.28;6182894;23;20352;-86
2021/12/16 11:15:11;;;;;;;5.78;3.17;;;;;;;7.27;82.31;101432.75;6182706;23;20040;-86
2021/12/16 11:17:39;;;;;;;4.60;2.50;;;;;;;7.28;82.55;101423.31;6182439;23;20017;-84
2021/12/16 11:20:09;;;;;;;3.95;2.10;;;;;;;7.30;82.67;101409.91;6182619;23;20124;-86
2021/12/16 11:22:36;;;;;;;3.47;2.13;;;;;;;7.32;82.89;101413.84;6182590;23;20033;-85
2021/12/16 11:25:14;;;;;;;4.25;2.50;;;;;;;7.35;82.69;101406.78;6182530;23;20092;-83
2021/12/16 11:27:42;;;;;;;4.00;2.22;;;;;;;7.44;82.59;101419.06;6182623;23;20016;-84
2021/12/16 11:30:43;;;;;;;3.40;2.20;;;;;;;7.48;82.32;101405.34;6156153;23;20013;-84
2021/12/16 11:33:28;;;;;;;3.85;2.45;;;;;;;7.56;83.24;101400.66;6109542;23;20439;-85
2021/12/16 11:35:57;;;;;;;3.50;2.45;;;;;;;7.63;82.24;101406.22;6182723;23;20017;-84
2021/12/16 11:38:29;;;;;;;5.30;2.55;;;;;;;7.65;82.64;101403.84;6182726;23;20016;-84
2021/12/16 11:41:10;;;;;;;3.50;2.40;;;;;;;7.67;83.24;101398.75;6182306;23;20051;-86
2021/12/16 11:43:47;;;;;;;3.10;2.00;;;;;;;7.71;83.15;101403.13;6182357;23;20013;-85
2021/12/16 11:46:26;;;;;;;3.33;2.20;;;;;;;7.70;83.96;101395.22;6182597;23;20013;-86
2021/12/16 11:48:54;;;;;;;4.00;2.40;;;;;;;7.78;84.06;101397.63;6182510;23;20092;-86
2021/12/16 11:51:26;;;;;;;3.92;2.40;;;;;;;7.81;82.86;101385.00;6182882;23;20340;-85
2021/12/16 11:53:56;;;;;;;3.38;2.42;;;;;;;7.85;83.04;101385.81;6182703;23;20089;-85
2021/12/16 11:56:50;;;;;;;6.03;2.63;;;;;;;7.86;82.88;101393.75;6184856;23;20013;-85
2021/12/16 11:59:38;;;;;;;4.45;2.47;;;;;;;7.90;82.81;101393.75;6172571;23;20025;-85
2021/12/16 12:02:06;;;;;;;6.35;2.95;;;;;;;7.89;82.97;101381.13;6157756;23;20347;-86
2021/12/16 12:04:35;;;;;;;4.35;2.90;;;;;;;7.98;82.65;101393.41;6157077;23;20040;-86
2021/12/16 12:07:15;;;;;;;4.10;2.40;;;;;;;8.05;83.29;101383.59;6184411;23;20260;-85
2021/12/16 12:09:53;;;;;;;4.55;2.80;;;;;;;8.10;82.80;101389.53;6183719;23;20013;-85
2021/12/16 12:12:46;;;;;;;4.78;3.10;;;;;;;8.18;82.98;101380.09;6184524;23;20013;-85
2021/12/16 12:15:15;;;;;;;16.92;4.72;;;;;;;8.24;82.26;101384.06;6157125;23;20083;-85
2021/12/16 12:17:53;;;;;;;4.18;2.72;;;;;;;8.31;81.74;101386.88;6157533;23;20494;-85
2021/12/16 12:20:24;;;;;;;4.03;2.50;;;;;;;8.31;81.57;101381.38;6183865;23;20013;-85
2021/12/16 12:22:50;;;;;;;5.25;3.20;;;;;;;8.27;81.35;101380.53;6184114;23;20020;-85
2021/12/16 12:25:17;;;;;;;3.95;2.20;;;;;;;8.29;81.87;101378.19;6183971;23;20005;-85
2021/12/16 12:27:42;;;;;;;4.15;2.67;;;;;;;8.40;82.19;101389.28;6183933;23;20013;-85
2021/12/16 12:30:09;;;;;;;3.35;1.75;;;;;;;8.44;80.22;101381.81;6156870;23;20012;-84
2021/12/16 12:32:41;;;;;;;4.40;1.98;;;;;;;8.45;80.30;101385.38;6157538;23;20140;-85
2021/12/16 12:35:20;;;;;;;4.15;2.40;;;;;;;8.36;80.00;101383.75;6183335;23;20017;-84
2021/12/16 12:37:50;;;;;;;3.35;1.65;;;;;;;8.36;80.70;101377.44;6183659;23;20110;-87
2021/12/16 12:40:23;;;;;;;5.50;2.30;;;;;;;8.38;80.31;101381.38;6183686;23;20363;-83
2021/12/16 12:42:50;;;;;;;4.40;2.10;;;;;;;8.39;81.13;101382.19;6183507;23;20017;-84
2021/12/16 12:45:20;;;;;;;3.38;1.70;;;;;;;8.37;80.82;101367.97;6183128;23;20248;-85
2021/12/16 12:47:49;;;;;;;2.92;2.00;;;;;;;8.41;80.47;101369.53;6183672;23;20013;-85
2021/12/16 12:50:43;;;;;;;4.50;2.00;;;;;;;8.45;80.50;101379.84;6157408;23;20024;-86
2021/12/16 12:53:24;;;;;;;2.75;1.65;;;;;;;8.39;80.39;101366.38;6157809;23;20012;-84
2021/12/16 12:55:54;;;;;;;3.00;1.98;;;;;;;8.43;80.98;101366.38;6156886;23;20448;-85
2021/12/16 12:58:22;;;;;;;2.85;1.70;;;;;;;8.51;82.33;101368.00;6183782;23;20368;-85
2021/12/16 13:00:53;;;;;;;2.97;2.10;;;;;;;8.55;81.95;101370.78;6156443;23;20005;-84
2021/12/16 13:03:34;;;;;;;2.95;2.10;;;;;;;8.50;81.31;101366.41;6157067;23;20013;-84
2021/12/16 13:06:12;;;;;;;3.38;2.40;;;;;;;8.51;81.47;101364.44;6157004;23;20024;-84
2021/12/16 13:08:47;;;;;;;3.72;2.55;;;;;;;8.48;81.04;101363.25;6183351;23;20017;-84
2021/12/16 13:11:28;;;;;;;3.67;2.60;;;;;;;8.35;80.37;101368.34;6157056;23;20087;-84
2021/12/16 13:14:16;;;;;;;3.53;2.67;;;;;;;8.29;81.16;101372.66;6156892;23;20020;-84
2021/12/16 13:25:55;;;;;;;;;;;;;;;8.07;81.45;101375.69;6183815;23;20059;-85
2021/12/16 13:28:14;;;;;;;4.32;2.80;;;;;;;8.01;81.54;101375.25;6164043;23;19936;-84
2021/12/16 13:30:51;;;;;;;3.72;2.83;;;;;;;7.96;82.18;101372.88;6182422;23;20005;-85
2021/12/16 13:33:24;;;;;;;4.05;2.90;;;;;;;7.93;81.82;101385.47;6182834;23;20024;-87
2021/12/16 13:36:01;;;;;;;4.17;2.83;;;;;;;7.92;81.36;101377.59;6156701;23;20087;-84
2021/12/16 13:38:36;;;;;;;3.58;2.60;;;;;;;7.89;81.37;101386.63;6183368;23;20268;-83
2021/12/16 13:41:36;;;;;;;3.55;2.80;;;;;;;7.82;81.73;101386.59;6183123;23;20016;-84
2021/12/16 13:44:08;;;;;;;3.65;2.80;;;;;;;7.82;81.72;101389.38;6183025;23;20020;-84
2021/12/16 13:47:03;;;;;;;4.13;3.10;;;;;;;7.79;82.59;101392.91;6157270;23;20032;-84
2021/12/16 14:04:13;;;;;;;5.72;4.18;;;;;;;7.42;83.22;101410.41;6183013;23;20044;-85
2021/12/16 14:07:01;;;;;;;6.07;4.60;;;;;;;7.37;83.63;101412.72;6182913;23;20025;-84
2021/12/16 14:09:32;;;;;;;8.77;5.00;;;;;;;7.38;83.41;101414.31;6183055;23;20013;-83
2021/12/16 14:14:56;;;;;;;8.50;6.00;;;;;;;7.39;83.66;101413.13;6182099;23;20463;-83
2021/12/16 14:23:52;;;;;;;;;;;;;;;7.32;84.39;101424.88;6141681;23;20017;-89
2021/12/16 14:27:21;;;;;;;7.65;6.00;;;;;;;7.28;83.67;101426.81;6148013;23;19912;-83
2021/12/16 14:45:18;;;;;;;12.13;7.00;;;;;;;6.77;86.00;101437.75;6182077;23;20071;-83
2021/12/16 14:48:41;;;;;;;9.27;6.70;;;;;;;6.73;86.22;101444.41;6182645;23;20406;-83
2021/12/16 14:50:53;;;;;;;9.27;6.30;;;;;;;6.62;86.64;101426.94;6166159;23;20056;-83
2021/12/16 14:53:36;;;;;;;10.70;6.47;;;;;;;6.60;86.57;101432.03;6182930;23;20017;-83
2021/12/16 14:56:06;;;;;;;9.03;7.20;;;;;;;6.52;87.00;101431.97;6182374;23;20097;-83
2021/12/16 14:58:32;;;;;;;8.10;6.20;;;;;;;6.49;86.86;101420.88;6156012;23;20387;-83
2021/12/16 15:01:07;;;;;;;7.95;6.20;;;;;;;6.44;87.35;101435.78;6182137;23;20477;-84
2021/12/16 15:03:37;;;;;;;11.65;6.85;;;;;;;6.40;87.51;101432.19;6155928;23;20021;-83
2021/12/16 15:06:07;;;;;;;9.85;6.68;;;;;;;6.37;87.85;101429.41;6182990;23;20075;-83
2021/12/16 15:11:29;;;;;;;9.23;6.40;;;;;;;6.24;88.04;101434.34;6158325;23;20016;-83
2021/12/16 15:13:59;;;;;;;9.30;6.57;;;;;;;6.18;88.74;101444.13;6182289;23;20044;-83
2021/12/16 15:35:03;;;;;;;25.23;13.60;;;;;;;5.84;90.60;101439.66;6184673;23;19959;-83
2021/12/16 15:36:39;;;;;;;17.33;10.85;;;;;;;5.77;91.17;101437.59;6183342;23;20024;-83
2021/12/16 15:44:23;;;;;;;13.82;10.63;;;;;;;5.62;92.26;101438.56;6183916;23;20009;-86
2021/12/16 15:46:49;;;;;;;12.35;9.25;;;;;;;5.57;91.95;101436.91;6157809;23;20028;-86
2021/12/16 15:49:15;;;;;;;13.70;10.70;;;;;;;5.60;92.36;101441.66;6184655;23;20017;-85
2021/12/16 15:51:41;;;;;;;13.52;10.43;;;;;;;5.57;92.78;101441.63;6157438;23;20016;-86
2021/12/16 15:54:10;;;;;;;11.13;8.30;;;;;;;5.57;92.66;101447.91;6184478;23;20017;-86
2021/12/16 15:56:38;;;;;;;11.00;7.80;;;;;;;5.58;92.73;101441.22;6156223;23;20037;-85
2021/12/16 15:59:09;;;;;;;13.13;9.48;;;;;;;5.59;93.16;101440.06;6155837;23;20071;-86
2021/12/16 16:01:37;;;;;;;16.80;10.90;;;;;;;5.68;92.86;101452.78;6182076;23;20024;-85
2021/12/16 16:04:07;;;;;;;16.75;11.27;;;;;;;5.68;92.92;101450.03;6182763;23;20013;-86